Time;durP1;ratioP1;P1;durP2;ratioP2;P2;SDS_P1;SDS_P2;PMS_P1;PMS_P2;Temp;Humidity;BMP_temperature;BMP_pressure;BME280_temperature;BME280_humidity;BME280_pressure;Samples;Min_cycle;Max_cycle;Signal;HPM_P1;HPM_P2
2023/04/27 00:06:17;;;;;;;11.70;5.65;;;;;;;;;;10173246;23;20491;-90
2023/04/27 00:10:20;;;;;;;14.07;5.57;;;;;;;;;;10176694;23;20029;-89
2023/04/27 00:14:27;;;;;;;11.05;6.57;;;;;;;;;;10173062;23;20053;-89
2023/04/27 00:18:31;;;;;;;17.92;7.40;;;;;;;;;;10189253;23;20051;-87
2023/04/27 00:22:40;;;;;;;13.77;6.25;;;;;;;;;;10148579;23;20037;-88
2023/04/27 00:26:46;;;;;;;10.48;5.97;;;;;;;;;;10119097;23;20029;-90
2023/04/27 00:30:52;;;;;;;14.60;6.35;;;;;;;;;;10117512;23;20029;-90
2023/04/27 00:34:56;;;;;;;12.70;5.68;;;;;;;;;;10116370;23;20398;-88
2023/04/27 00:39:02;;;;;;;10.35;5.63;;;;;;;;;;10115462;23;20608;-92
2023/04/27 00:43:08;;;;;;;13.40;5.57;;;;;;;;;;10116049;23;20108;-88
2023/04/27 00:47:14;;;;;;;12.70;6.13;;;;;;;;;;10115840;23;20447;-89
2023/04/27 00:51:19;;;;;;;12.70;5.22;;;;;;;;;;10116259;23;20463;-90
2023/04/27 00:55:28;;;;;;;15.82;6.07;;;;;;;;;;10115298;23;20404;-88
2023/04/27 00:59:34;;;;;;;12.30;5.50;;;;;;;;;;10115712;23;20026;-91
2023/04/27 01:03:38;;;;;;;11.13;5.07;;;;;;;;;;10139792;23;20026;-88
2023/04/27 01:07:41;;;;;;;11.85;5.55;;;;;;;;;;10114574;23;20332;-89
2023/04/27 03:06:03;;;;;;;9.70;5.80;;;;;;;;;;10139386;23;20105;-90
2023/04/27 03:10:07;;;;;;;17.20;7.13;;;;;;;;;;10155050;23;20033;-88
2023/04/27 03:14:11;;;;;;;12.85;6.22;;;;;;;;;;10138894;23;20387;-87
2023/04/27 03:18:14;;;;;;;14.43;6.43;;;;;;;;;;10138491;23;20018;-88
2023/04/27 03:22:19;;;;;;;17.02;5.82;;;;;;;;;;10139243;23;20025;-89
2023/04/27 05:43:59;;;;;;;13.43;5.55;;;;;;;;;;10150122;23;20069;-90
2023/04/27 05:48:02;;;;;;;12.80;6.22;;;;;;;;;;10139680;23;20105;-90
2023/04/27 09:03:02;;;;;;;6.65;3.13;;;;;;;;;;10081588;23;20042;-89
2023/04/27 09:07:12;;;;;;;5.38;2.83;;;;;;;;;;10242405;23;20053;-89
2023/04/27 09:11:17;;;;;;;7.20;2.83;;;;;;;;;;10228449;23;20045;-93
2023/04/27 09:15:23;;;;;;;7.43;2.72;;;;;;;;;;10230653;23;20033;-93
2023/04/27 09:19:34;;;;;;;7.78;3.03;;;;;;;;;;10204772;23;20101;-90
2023/04/27 09:23:45;;;;;;;11.35;2.90;;;;;;;;;;10182893;23;20374;-94
2023/04/27 09:27:49;;;;;;;9.18;2.92;;;;;;;;;;10172711;23;20029;-90
2023/04/27 09:31:53;;;;;;;7.70;2.90;;;;;;;;;;10168470;23;20025;-92
2023/04/27 09:36:00;;;;;;;6.65;2.55;;;;;;;;;;10169437;23;20025;-93
2023/04/27 09:40:05;;;;;;;5.20;2.70;;;;;;;;;;10173241;23;20407;-93
2023/04/27 09:44:11;;;;;;;6.97;2.80;;;;;;;;;;10165552;23;20331;-94
2023/04/27 09:48:17;;;;;;;5.18;2.83;;;;;;;;;;10164149;23;20454;-92
2023/04/27 09:52:25;;;;;;;5.78;2.65;;;;;;;;;;10163482;23;20025;-92
2023/04/27 09:56:39;;;;;;;5.57;2.47;;;;;;;;;;10162987;23;20034;-94
2023/04/27 10:00:56;;;;;;;6.88;3.53;;;;;;;;;;10162754;23;20043;-93
2023/04/27 10:10:48;;;;;;;4.80;2.40;;;;;;;;;;10191979;23;20081;-92
2023/04/27 10:25:28;;;;;;;8.32;3.47;;;;;;;;;;10188638;23;20065;-93
2023/04/27 10:30:08;;;;;;;7.82;3.83;;;;;;;;;;10163565;23;20056;-93
2023/04/27 13:39:55;;;;;;;11.17;3.97;;;;;;;;;;10226421;22;20568;-91
2023/04/27 13:43:58;;;;;;;11.98;4.47;;;;;;;;;;10189959;23;20028;-94
2023/04/27 13:58:37;;;;;;;8.48;3.45;;;;;;;;;;10188167;23;20022;-90
2023/04/27 14:23:11;;;;;;;6.82;3.60;;;;;;;;;;10187693;23;20063;-91
2023/04/27 14:43:05;;;;;;;8.63;3.63;;;;;;;;;;10184904;23;20072;-91
2023/04/27 17:34:27;;;;;;;181.70;52.25;;;;;;;;;;10165523;23;20073;-91
2023/04/27 17:38:38;;;;;;;299.77;76.05;;;;;;;;;;10194880;23;20025;-91
2023/04/27 17:42:48;;;;;;;272.77;65.88;;;;;;;;;;10190480;23;20030;-92
2023/04/27 17:52:01;;;;;;;140.68;38.47;;;;;;;;;;10170557;23;20108;-91
2023/04/27 18:56:22;;;;;;;33.22;10.63;;;;;;;;;;10203225;23;20033;-89
2023/04/27 19:00:27;;;;;;;46.28;14.88;;;;;;;;;;10240411;23;20021;-89
2023/04/27 19:04:35;;;;;;;99.57;26.25;;;;;;;;;;10222714;23;20049;-90
2023/04/27 19:08:39;;;;;;;35.63;12.48;;;;;;;;;;10197911;23;20022;-90
2023/04/27 19:12:50;;;;;;;24.05;9.05;;;;;;;;;;10200099;23;20032;-89
2023/04/27 19:16:57;;;;;;;77.63;21.73;;;;;;;;;;10193500;23;20033;-89
2023/04/27 19:21:04;;;;;;;39.70;13.45;;;;;;;;;;10167766;23;20160;-89
2023/04/27 19:25:09;;;;;;;53.40;17.42;;;;;;;;;;10168874;23;20054;-89
2023/04/27 19:29:18;;;;;;;28.63;9.88;;;;;;;;;;10166025;23;20342;-88
2023/04/27 19:33:24;;;;;;;20.52;8.55;;;;;;;;;;10168915;23;20025;-89
2023/04/27 19:37:34;;;;;;;19.52;7.90;;;;;;;;;;10172002;23;20032;-89
2023/04/27 19:41:39;;;;;;;13.68;6.03;;;;;;;;;;10167036;23;20047;-88
2023/04/27 19:45:49;;;;;;;19.30;8.60;;;;;;;;;;10162366;23;20057;-89
2023/04/27 19:49:57;;;;;;;21.15;8.73;;;;;;;;;;10161953;23;20104;-88
2023/04/27 19:54:01;;;;;;;16.98;10.45;;;;;;;;;;10161575;23;20064;-89
2023/04/27 19:58:07;;;;;;;14.52;8.55;;;;;;;;;;10161958;23;20029;-89
2023/04/27 20:02:17;;;;;;;114.75;47.15;;;;;;;;;;10161746;23;20033;-89
2023/04/27 20:06:23;;;;;;;36.13;22.25;;;;;;;;;;10161737;23;20049;-89
2023/04/27 20:10:27;;;;;;;15.90;9.73;;;;;;;;;;10162158;23;20026;-89
2023/04/27 20:14:33;;;;;;;23.58;10.65;;;;;;;;;;10163922;23;20084;-92
2023/04/27 20:18:40;;;;;;;18.77;9.68;;;;;;;;;;10162634;23;20025;-90
2023/04/27 20:22:45;;;;;;;15.00;7.95;;;;;;;;;;10160900;23;20037;-87
2023/04/27 20:26:52;;;;;;;15.13;8.07;;;;;;;;;;10159840;23;20097;-89
2023/04/27 20:30:58;;;;;;;11.90;6.88;;;;;;;;;;10161755;23;20029;-90
2023/04/27 20:35:09;;;;;;;37.35;15.45;;;;;;;;;;10162272;23;20092;-92
